Time;durP1;ratioP1;P1;durP2;ratioP2;P2;SDS_P1;SDS_P2;PMS_P1;PMS_P2;Temp;Humidity;BMP_temperature;BMP_pressure;BME280_temperature;BME280_humidity;BME280_pressure;Samples;Min_cycle;Max_cycle;Signal;HPM_P1;HPM_P2
2023/10/29 00:00:18;;;;;;;3.90;2.10;;;;;;;;;;4997694;28;20180;-84
2023/10/29 00:02:56;;;;;;;;;;;;;;;;;;;;;
2023/10/29 00:05:43;;;;;;;;;;;;;;;;;;;;;
2023/10/29 00:08:12;;;;;;;4.20;2.43;;;;;;;;;;4996843;28;20189;-91
2023/10/29 00:10:38;;;;;;;5.00;2.20;;;;;;;;;;5032183;28;20185;-90
2023/10/29 00:22:21;;;;;;;2.17;1.90;;;;;;;;;;5012683;28;20193;-89
2023/10/29 00:28:16;;;;;;;2.23;1.60;;;;;;;;;;5011334;28;20176;-84
2023/10/29 00:30:43;;;;;;;3.20;1.90;;;;;;;;;;5010806;28;20185;-84
2023/10/29 00:33:15;;;;;;;4.60;2.00;;;;;;;;;;5031946;28;20189;-83
2023/10/29 00:35:44;;;;;;;5.40;1.90;;;;;;;;;;5027194;28;20790;-84
2023/10/29 00:44:26;;;;;;;2.43;1.57;;;;;;;;;;5016668;28;20199;-83
2023/10/29 00:47:06;;;;;;;3.17;1.60;;;;;;;;;;5004062;28;20185;-83
2023/10/29 00:49:34;;;;;;;3.40;1.63;;;;;;;;;;5024761;28;20189;-83
2023/10/29 00:52:03;;;;;;;3.00;1.57;;;;;;;;;;5015534;28;20177;-83
2023/10/29 00:58:01;;;;;;;;;;;;;;;;;;;;;
2023/10/29 01:00:31;;;;;;;3.03;1.53;;;;;;;;;;5016958;28;20187;-89
2023/10/29 01:03:09;;;;;;;2.53;1.43;;;;;;;;;;5018082;28;20211;-90
2023/10/29 01:05:58;;;;;;;3.80;1.70;;;;;;;;;;5018166;28;20192;-89
2023/10/29 01:08:59;;;;;;;2.13;1.40;;;;;;;;;;5015664;28;20220;-90
2023/10/29 01:11:48;;;;;;;5.07;1.60;;;;;;;;;;5015952;28;20231;-91
2023/10/29 01:14:17;;;;;;;3.97;1.73;;;;;;;;;;5019106;28;20185;-90
2023/10/29 01:17:06;;;;;;;3.07;1.40;;;;;;;;;;5010287;28;20245;-89
2023/10/29 01:19:32;;;;;;;2.73;1.50;;;;;;;;;;5004030;28;20185;-88
2023/10/29 01:22:01;;;;;;;2.67;1.33;;;;;;;;;;5017632;28;20185;-89
2023/10/29 01:24:35;;;;;;;2.87;1.67;;;;;;;;;;5028362;28;20181;-89
2023/10/29 01:27:15;;;;;;;4.30;1.53;;;;;;;;;;5029632;28;20180;-89
2023/10/29 01:29:41;;;;;;;2.43;1.40;;;;;;;;;;5021465;28;20238;-90
2023/10/29 01:38:24;;;;;;;2.03;1.40;;;;;;;;;;4974384;28;20189;-89
2023/10/29 01:40:58;;;;;;;2.30;1.40;;;;;;;;;;4952951;28;20183;-89
2023/10/29 01:44:13;;;;;;;2.67;1.47;;;;;;;;;;4974417;28;20269;-90
2023/10/29 01:49:31;;;;;;;2.00;1.20;;;;;;;;;;4994542;28;20200;-90
2023/10/29 01:52:01;;;;;;;4.67;1.50;;;;;;;;;;4997945;28;20177;-88
2023/10/29 01:57:23;;;;;;;2.47;1.60;;;;;;;;;;5023076;28;20188;-88
2023/10/29 01:59:56;;;;;;;5.07;1.50;;;;;;;;;;5017280;28;20191;-89
2023/10/29 02:02:32;;;;;;;1.60;1.33;;;;;;;;;;5016632;28;20243;-89
2023/10/29 02:05:05;;;;;;;2.40;1.50;;;;;;;;;;5012818;28;20204;-87
2023/10/29 02:07:39;;;;;;;2.67;1.50;;;;;;;;;;5020741;28;20216;-89
2023/10/29 02:10:12;;;;;;;3.40;1.50;;;;;;;;;;5016943;28;20189;-89
2023/10/29 02:12:47;;;;;;;3.67;1.50;;;;;;;;;;5002502;28;20256;-90
2023/10/29 02:15:14;;;;;;;3.53;1.50;;;;;;;;;;5016927;28;20207;-88
2023/10/29 02:18:12;;;;;;;3.23;1.43;;;;;;;;;;5016770;28;20319;-89
2023/10/29 02:21:05;;;;;;;4.87;1.40;;;;;;;;;;4997693;28;20188;-88
2023/10/29 02:23:34;;;;;;;3.37;1.40;;;;;;;;;;5004829;28;20212;-88
2023/10/29 02:26:03;;;;;;;3.80;1.57;;;;;;;;;;5021091;28;20184;-89
2023/10/29 02:28:32;;;;;;;3.00;1.30;;;;;;;;;;5016951;28;20234;-91
2023/10/29 02:31:10;;;;;;;4.13;1.53;;;;;;;;;;5022038;28;20177;-89
2023/10/29 02:33:49;;;;;;;;;;;;;;;;;;;;;
2023/10/29 02:36:20;;;;;;;3.00;1.70;;;;;;;;;;5034129;28;20237;-89
2023/10/29 02:38:49;;;;;;;4.00;1.50;;;;;;;;;;5016737;28;20206;-88
2023/10/29 02:41:23;;;;;;;3.63;1.90;;;;;;;;;;5016981;28;20185;-89
2023/10/29 02:43:53;;;;;;;3.20;1.50;;;;;;;;;;5016478;28;20240;-89
2023/10/29 02:46:57;;;;;;;2.40;1.40;;;;;;;;;;5017363;28;20181;-89
2023/10/29 02:49:23;;;;;;;4.17;1.67;;;;;;;;;;5033399;28;20275;-88
2023/10/29 02:51:57;;;;;;;3.73;1.40;;;;;;;;;;5016885;28;20184;-90
2023/10/29 02:54:32;;;;;;;3.77;1.50;;;;;;;;;;5016624;28;20207;-89
2023/10/29 02:57:00;;;;;;;3.60;1.40;;;;;;;;;;5016657;28;20188;-89
2023/10/29 02:59:47;;;;;;;2.70;1.50;;;;;;;;;;5016206;28;20183;-88
2023/10/29 03:02:18;;;;;;;7.57;1.63;;;;;;;;;;5018545;28;20254;-88
2023/10/29 03:05:06;;;;;;;2.30;1.27;;;;;;;;;;5016227;28;20176;-89
2023/10/29 03:07:38;;;;;;;3.13;1.27;;;;;;;;;;5016256;28;20215;-88
2023/10/29 03:10:05;;;;;;;3.53;1.47;;;;;;;;;;5016389;28;20211;-89
2023/10/29 03:12:51;;;;;;;2.10;1.20;;;;;;;;;;5016256;28;20183;-89
2023/10/29 03:15:19;;;;;;;1.60;1.20;;;;;;;;;;5021869;28;20220;-90
2023/10/29 03:17:46;;;;;;;3.23;1.20;;;;;;;;;;5016638;28;20177;-89
2023/10/29 03:20:21;;;;;;;3.27;1.07;;;;;;;;;;5016693;28;20270;-88
2023/10/29 03:22:47;;;;;;;2.47;1.10;;;;;;;;;;5014295;28;20193;-88
2023/10/29 03:25:13;;;;;;;2.83;1.20;;;;;;;;;;5017817;28;20273;-89
2023/10/29 03:33:51;;;;;;;2.20;1.30;;;;;;;;;;5016864;28;20192;-90
2023/10/29 03:36:34;;;;;;;1.60;1.03;;;;;;;;;;5015546;28;20303;-83
2023/10/29 03:39:07;;;;;;;2.03;1.07;;;;;;;;;;5000254;28;20184;-85
2023/10/29 03:44:39;;;;;;;2.33;1.13;;;;;;;;;;5033465;28;20269;-84
2023/10/29 03:47:08;;;;;;;1.40;1.07;;;;;;;;;;5015965;28;20181;-84
2023/10/29 03:53:05;;;;;;;1.87;1.10;;;;;;;;;;5026673;28;20251;-83
2023/10/29 03:55:39;;;;;;;3.70;1.30;;;;;;;;;;5001936;28;20232;-83
2023/10/29 04:01:21;;;;;;;2.23;0.93;;;;;;;;;;4990132;28;20190;-84
2023/10/29 04:04:08;;;;;;;2.87;1.10;;;;;;;;;;5009658;28;20186;-83
2023/10/29 04:07:13;;;;;;;;;;;;;;;;;;;;;
2023/10/29 04:09:44;;;;;;;3.80;1.13;;;;;;;;;;5015030;28;20185;-83
2023/10/29 04:12:23;;;;;;;;;;;;;;;;;;;;;
2023/10/29 04:14:55;;;;;;;2.10;0.93;;;;;;;;;;4997369;28;20202;-83
2023/10/29 04:17:23;;;;;;;2.53;1.00;;;;;;;;;;4996286;28;20208;-83
2023/10/29 04:20:08;;;;;;;2.07;0.97;;;;;;;;;;5032484;28;20243;-83
2023/10/29 04:22:52;;;;;;;3.17;1.10;;;;;;;;;;5032424;28;20181;-84
2023/10/29 04:25:21;;;;;;;2.00;1.20;;;;;;;;;;5032182;28;20196;-83
2023/10/29 04:27:57;;;;;;;1.43;0.90;;;;;;;;;;5009712;28;20253;-83
2023/10/29 04:30:38;;;;;;;3.40;1.07;;;;;;;;;;5011251;28;20176;-83
2023/10/29 04:33:17;;;;;;;1.83;1.20;;;;;;;;;;5014702;28;20196;-88
2023/10/29 04:36:05;;;;;;;;;;;;;;;;;;;;;
2023/10/29 04:38:42;;;;;;;1.50;0.90;;;;;;;;;;5012424;28;20174;-88
2023/10/29 04:41:25;;;;;;;2.73;1.00;;;;;;;;;;5016159;28;20180;-88
2023/10/29 04:43:58;;;;;;;2.53;1.00;;;;;;;;;;5015407;28;20233;-89
2023/10/29 04:53:00;;;;;;;1.43;1.00;;;;;;;;;;4967386;28;20249;-88
2023/10/29 04:55:59;;;;;;;2.13;0.90;;;;;;;;;;4939438;29;20230;-89
2023/10/29 04:58:54;;;;;;;3.43;1.00;;;;;;;;;;4951072;28;20187;-88
2023/10/29 05:01:50;;;;;;;3.20;1.13;;;;;;;;;;4971344;28;20181;-90
2023/10/29 05:04:36;;;;;;;2.57;1.30;;;;;;;;;;4958679;28;20183;-89
2023/10/29 05:13:17;;;;;;;4.50;1.30;;;;;;;;;;4982846;28;20169;-88
2023/10/29 05:19:39;;;;;;;2.97;1.30;;;;;;;;;;4987248;28;20194;-85
2023/10/29 05:25:27;;;;;;;2.43;1.40;;;;;;;;;;4920282;29;20222;-86
2023/10/29 05:28:33;;;;;;;;;;;;;;;;;;;;;
2023/10/29 05:31:14;;;;;;;3.47;1.40;;;;;;;;;;4959954;28;20209;-84
2023/10/29 05:34:03;;;;;;;2.57;1.20;;;;;;;;;;4974512;28;20175;-85
2023/10/29 05:39:43;;;;;;;;;;;;;;;;;;;;;
2023/10/29 05:48:51;;;;;;;3.10;1.27;;;;;;;;;;4995769;28;20157;-85
2023/10/29 06:10:43;;;;;;;2.37;1.07;;;;;;;;;;4860662;29;20173;-89
2023/10/29 06:20:04;;;;;;;3.77;1.20;;;;;;;;;;4805648;29;20254;-90
2023/10/29 06:37:17;;;;;;;3.43;1.00;;;;;;;;;;5077935;22;20233;-78
2023/10/29 06:39:43;;;;;;;2.40;0.97;;;;;;;;;;5004012;28;20181;-78
2023/10/29 06:42:09;;;;;;;3.83;1.20;;;;;;;;;;5000718;28;20184;-78
2023/10/29 06:44:35;;;;;;;2.23;1.27;;;;;;;;;;5002189;28;20326;-78
2023/10/29 06:47:02;;;;;;;4.07;1.00;;;;;;;;;;5016460;28;20187;-78
2023/10/29 06:49:28;;;;;;;3.43;0.90;;;;;;;;;;4998344;28;20193;-78
2023/10/29 06:51:54;;;;;;;3.23;1.10;;;;;;;;;;5020170;28;20191;-78
2023/10/29 06:54:20;;;;;;;3.30;1.20;;;;;;;;;;5018994;28;20271;-78
2023/10/29 06:56:47;;;;;;;3.03;1.27;;;;;;;;;;5001856;28;20299;-79
2023/10/29 06:59:13;;;;;;;2.33;0.90;;;;;;;;;;5002099;28;20189;-79
2023/10/29 07:01:39;;;;;;;2.50;1.20;;;;;;;;;;5019666;28;20180;-79
2023/10/29 07:04:06;;;;;;;4.03;1.20;;;;;;;;;;5004911;28;20181;-79
2023/10/29 07:06:32;;;;;;;3.87;1.20;;;;;;;;;;4999954;28;20258;-79
2023/10/29 07:08:58;;;;;;;4.03;1.20;;;;;;;;;;5003571;28;20196;-79
2023/10/29 07:11:24;;;;;;;4.90;1.30;;;;;;;;;;5018997;28;20191;-79
2023/10/29 07:13:52;;;;;;;5.87;1.60;;;;;;;;;;5031459;28;20255;-78
2023/10/29 07:16:18;;;;;;;6.77;1.40;;;;;;;;;;5034261;28;20369;-78
2023/10/29 07:18:44;;;;;;;6.77;1.50;;;;;;;;;;5013950;28;20200;-78
2023/10/29 07:21:10;;;;;;;8.00;1.60;;;;;;;;;;5002918;28;20180;-78
2023/10/29 07:23:36;;;;;;;7.73;1.60;;;;;;;;;;5032302;28;20234;-78
2023/10/29 07:26:02;;;;;;;5.80;1.90;;;;;;;;;;5019919;28;20414;-77
2023/10/29 07:28:28;;;;;;;5.47;1.73;;;;;;;;;;5016279;28;20457;-78
2023/10/29 07:30:58;;;;;;;5.05;1.70;;;;;;;;;;4989850;28;20423;-78
2023/10/29 07:33:24;;;;;;;5.82;1.90;;;;;;;;;;4995987;28;20561;-78
2023/10/29 07:35:50;;;;;;;5.90;1.70;;;;;;;;;;5008010;28;20536;-78
2023/10/29 07:38:16;;;;;;;5.72;2.20;;;;;;;;;;4996769;28;20582;-78
2023/10/29 07:40:42;;;;;;;4.68;1.70;;;;;;;;;;5009748;28;20441;-78
2023/10/29 07:43:09;;;;;;;6.40;1.80;;;;;;;;;;5019654;28;20409;-78
2023/10/29 07:45:35;;;;;;;7.63;2.10;;;;;;;;;;5003725;28;20417;-78
2023/10/29 07:48:02;;;;;;;8.40;2.08;;;;;;;;;;5035816;28;20435;-77
2023/10/29 07:50:28;;;;;;;7.25;2.00;;;;;;;;;;5019600;28;20421;-77
2023/10/29 07:52:55;;;;;;;6.40;1.60;;;;;;;;;;5020065;28;20512;-77
2023/10/29 07:55:21;;;;;;;8.03;1.97;;;;;;;;;;5022186;28;20216;-77
2023/10/29 07:57:47;;;;;;;7.38;2.00;;;;;;;;;;5019498;28;20413;-77
2023/10/29 08:00:13;;;;;;;7.32;2.20;;;;;;;;;;5036576;28;20413;-77
2023/10/29 08:02:40;;;;;;;6.38;2.10;;;;;;;;;;5019545;28;20417;-77
2023/10/29 08:05:06;;;;;;;6.70;2.10;;;;;;;;;;5003679;28;20428;-78
2023/10/29 08:07:33;;;;;;;8.15;2.17;;;;;;;;;;5020599;28;20413;-78
2023/10/29 08:09:59;;;;;;;6.03;2.10;;;;;;;;;;4997801;28;20435;-78
2023/10/29 08:12:26;;;;;;;6.73;2.17;;;;;;;;;;5012286;28;20496;-78
2023/10/29 08:14:52;;;;;;;7.22;2.13;;;;;;;;;;5029279;28;20430;-78
2023/10/29 08:17:18;;;;;;;7.35;2.30;;;;;;;;;;5010913;28;20426;-78
2023/10/29 08:19:45;;;;;;;6.78;2.15;;;;;;;;;;5019725;28;20421;-77
2023/10/29 08:22:11;;;;;;;7.57;2.40;;;;;;;;;;5019665;28;20412;-77
2023/10/29 08:24:37;;;;;;;10.32;2.40;;;;;;;;;;5019740;28;20416;-76
2023/10/29 08:27:05;;;;;;;6.70;2.23;;;;;;;;;;5020194;28;20181;-77
2023/10/29 08:29:31;;;;;;;11.67;2.40;;;;;;;;;;5004487;28;20188;-77
2023/10/29 08:31:57;;;;;;;7.27;2.27;;;;;;;;;;5038241;28;20181;-77
2023/10/29 08:34:23;;;;;;;8.73;2.27;;;;;;;;;;5007962;28;20195;-77
2023/10/29 08:36:49;;;;;;;8.02;2.28;;;;;;;;;;5019670;28;20486;-82
2023/10/29 08:39:16;;;;;;;8.55;2.30;;;;;;;;;;5015851;28;20458;-82
2023/10/29 08:41:42;;;;;;;7.00;2.38;;;;;;;;;;5008002;28;20457;-82
2023/10/29 08:44:08;;;;;;;8.25;2.35;;;;;;;;;;5017670;28;20407;-82
2023/10/29 08:46:34;;;;;;;9.70;2.40;;;;;;;;;;5015572;28;20192;-82
2023/10/29 08:49:00;;;;;;;8.03;1.90;;;;;;;;;;5018005;28;20208;-82
2023/10/29 08:51:26;;;;;;;6.32;2.08;;;;;;;;;;5003286;28;20500;-82
2023/10/29 08:53:52;;;;;;;8.50;1.80;;;;;;;;;;5002990;28;20193;-81
2023/10/29 08:56:18;;;;;;;5.60;1.80;;;;;;;;;;5007763;28;20216;-82
2023/10/29 08:58:44;;;;;;;6.72;2.17;;;;;;;;;;5006950;28;20419;-82
2023/10/29 09:01:12;;;;;;;9.70;2.00;;;;;;;;;;5032047;28;20185;-82
2023/10/29 09:03:39;;;;;;;7.47;2.50;;;;;;;;;;5014344;28;20544;-82
2023/10/29 09:06:05;;;;;;;6.53;2.20;;;;;;;;;;5015144;28;20462;-82
2023/10/29 09:08:33;;;;;;;7.32;2.30;;;;;;;;;;5014639;28;20418;-82
2023/10/29 09:10:59;;;;;;;7.35;2.40;;;;;;;;;;5015720;28;20403;-78
2023/10/29 09:13:26;;;;;;;7.00;2.35;;;;;;;;;;5000354;28;20413;-78
2023/10/29 09:15:52;;;;;;;7.55;2.30;;;;;;;;;;4999506;28;20434;-78
2023/10/29 09:18:18;;;;;;;6.82;2.30;;;;;;;;;;5010167;28;20413;-78
2023/10/29 09:20:46;;;;;;;7.90;2.33;;;;;;;;;;5022006;28;20402;-78
2023/10/29 09:23:14;;;;;;;6.93;2.30;;;;;;;;;;5015727;28;20411;-78
2023/10/29 09:25:43;;;;;;;7.87;2.30;;;;;;;;;;5016008;28;20417;-78
2023/10/29 09:28:11;;;;;;;6.40;2.20;;;;;;;;;;5015248;28;20430;-77
2023/10/29 09:30:37;;;;;;;5.53;2.10;;;;;;;;;;5011757;28;20272;-78
2023/10/29 09:33:03;;;;;;;7.53;2.27;;;;;;;;;;5014555;28;20188;-78
2023/10/29 09:35:29;;;;;;;6.25;2.33;;;;;;;;;;5030888;28;20449;-78
2023/10/29 09:37:55;;;;;;;5.63;1.90;;;;;;;;;;5027181;28;20181;-78
2023/10/29 09:40:21;;;;;;;5.53;1.90;;;;;;;;;;4999080;28;20181;-78
2023/10/29 09:42:55;;;;;;;6.47;2.00;;;;;;;;;;5015626;28;20178;-78
2023/10/29 09:45:25;;;;;;;7.43;2.10;;;;;;;;;;5028636;28;20176;-78
2023/10/29 09:47:55;;;;;;;5.83;2.10;;;;;;;;;;5015460;28;20272;-78
2023/10/29 09:50:21;;;;;;;5.07;1.70;;;;;;;;;;5033462;28;20200;-78
2023/10/29 09:52:51;;;;;;;6.70;1.90;;;;;;;;;;5015015;28;20208;-78
2023/10/29 09:55:20;;;;;;;5.80;2.00;;;;;;;;;;5022475;28;20237;-78
2023/10/29 09:57:46;;;;;;;7.13;1.85;;;;;;;;;;5016977;28;20425;-78
2023/10/29 10:00:15;;;;;;;5.63;1.90;;;;;;;;;;5001552;28;20239;-80
2023/10/29 10:02:55;;;;;;;4.00;1.87;;;;;;;;;;5001200;28;20204;-78
2023/10/29 10:05:21;;;;;;;9.63;1.90;;;;;;;;;;5018217;28;20202;-80
2023/10/29 10:07:48;;;;;;;4.53;1.60;;;;;;;;;;5018373;28;20176;-80
2023/10/29 10:10:14;;;;;;;5.63;1.77;;;;;;;;;;5035559;28;20180;-80
2023/10/29 10:12:47;;;;;;;6.30;1.77;;;;;;;;;;5014799;28;20200;-80
2023/10/29 10:15:14;;;;;;;5.53;1.70;;;;;;;;;;5014460;28;20205;-80
2023/10/29 10:17:45;;;;;;;5.17;1.70;;;;;;;;;;5016901;28;20185;-79
2023/10/29 10:20:12;;;;;;;6.17;2.03;;;;;;;;;;5016025;28;20185;-79
2023/10/29 10:22:38;;;;;;;6.57;2.23;;;;;;;;;;4998071;28;20181;-79
2023/10/29 10:25:04;;;;;;;4.77;1.73;;;;;;;;;;4998881;28;20177;-79
2023/10/29 10:27:30;;;;;;;8.53;2.40;;;;;;;;;;5012095;28;20196;-79
2023/10/29 10:29:56;;;;;;;6.00;1.83;;;;;;;;;;5006105;28;20189;-79
2023/10/29 10:32:24;;;;;;;7.90;2.00;;;;;;;;;;5017566;28;20187;-78
2023/10/29 10:34:54;;;;;;;6.17;1.80;;;;;;;;;;5020348;28;20185;-79
2023/10/29 10:37:24;;;;;;;9.83;2.20;;;;;;;;;;5006957;28;20220;-79
2023/10/29 10:39:50;;;;;;;7.40;2.20;;;;;;;;;;5013256;28;20263;-79
2023/10/29 10:42:23;;;;;;;9.23;2.10;;;;;;;;;;5016330;28;20188;-79
2023/10/29 10:44:49;;;;;;;7.43;1.80;;;;;;;;;;5022973;28;20185;-79
2023/10/29 10:47:16;;;;;;;7.97;2.13;;;;;;;;;;5016774;28;20194;-78
2023/10/29 10:49:43;;;;;;;8.63;2.17;;;;;;;;;;5021554;28;20190;-78
2023/10/29 10:52:10;;;;;;;7.40;2.00;;;;;;;;;;5021480;28;20243;-79
2023/10/29 10:54:37;;;;;;;11.03;2.30;;;;;;;;;;5016575;28;20432;-79
2023/10/29 10:57:05;;;;;;;10.40;2.20;;;;;;;;;;5016270;28;20307;-78
2023/10/29 10:59:35;;;;;;;8.60;2.07;;;;;;;;;;5016345;28;20184;-78
2023/10/29 11:02:02;;;;;;;6.90;2.20;;;;;;;;;;5024205;28;20177;-79
2023/10/29 11:04:28;;;;;;;8.70;2.17;;;;;;;;;;5015671;28;20200;-79
2023/10/29 11:06:55;;;;;;;7.10;2.10;;;;;;;;;;5022341;28;20192;-82
2023/10/29 11:09:23;;;;;;;8.20;1.87;;;;;;;;;;4999970;28;20191;-82
2023/10/29 11:11:50;;;;;;;6.80;1.87;;;;;;;;;;4997980;28;20409;-82
2023/10/29 11:14:17;;;;;;;6.57;2.00;;;;;;;;;;5016045;28;20207;-82
2023/10/29 11:16:47;;;;;;;7.07;2.20;;;;;;;;;;5018407;28;20216;-82
2023/10/29 11:19:32;;;;;;;9.97;2.40;;;;;;;;;;5027797;28;20181;-81
2023/10/29 11:22:15;;;;;;;7.33;2.50;;;;;;;;;;5024734;28;20203;-82
2023/10/29 11:24:41;;;;;;;8.90;2.23;;;;;;;;;;5014253;28;20196;-80
2023/10/29 11:27:26;;;;;;;6.77;1.97;;;;;;;;;;5018017;28;20188;-79
2023/10/29 11:29:52;;;;;;;10.50;2.13;;;;;;;;;;5011466;28;20255;-79
2023/10/29 11:32:25;;;;;;;9.87;2.20;;;;;;;;;;5012528;28;20193;-79
2023/10/29 11:35:10;;;;;;;9.70;2.43;;;;;;;;;;5019713;28;20226;-79
2023/10/29 11:37:37;;;;;;;6.30;1.90;;;;;;;;;;5013569;28;20239;-79
2023/10/29 11:40:36;;;;;;;7.83;2.17;;;;;;;;;;5009260;28;20184;-79
2023/10/29 11:43:22;;;;;;;6.87;2.20;;;;;;;;;;4968531;28;20193;-80
2023/10/29 11:46:02;;;;;;;11.47;2.70;;;;;;;;;;5007251;28;20184;-79
2023/10/29 11:48:29;;;;;;;9.03;2.40;;;;;;;;;;5018067;28;20214;-79
2023/10/29 11:51:08;;;;;;;9.50;2.60;;;;;;;;;;5017705;28;20279;-79
2023/10/29 11:53:36;;;;;;;10.07;2.27;;;;;;;;;;5018876;28;20207;-79
2023/10/29 11:56:09;;;;;;;11.37;2.00;;;;;;;;;;5015896;28;20205;-79
2023/10/29 11:58:36;;;;;;;8.23;2.10;;;;;;;;;;5011469;28;20185;-78
2023/10/29 12:01:02;;;;;;;7.33;1.90;;;;;;;;;;5022167;28;20181;-78
2023/10/29 12:03:32;;;;;;;8.63;2.27;;;;;;;;;;5024206;28;20209;-78
2023/10/29 12:05:58;;;;;;;9.70;2.30;;;;;;;;;;5019124;28;20271;-77
2023/10/29 12:08:24;;;;;;;9.63;2.17;;;;;;;;;;5018117;28;20191;-78
2023/10/29 12:10:51;;;;;;;9.73;2.40;;;;;;;;;;5035512;28;20185;-78
2023/10/29 12:13:20;;;;;;;6.70;2.07;;;;;;;;;;5023972;28;20204;-78
2023/10/29 12:15:56;;;;;;;8.83;2.30;;;;;;;;;;5025004;28;20220;-79
2023/10/29 12:18:23;;;;;;;8.03;1.90;;;;;;;;;;5028631;28;20184;-79
2023/10/29 12:20:49;;;;;;;7.97;2.33;;;;;;;;;;5024764;28;20209;-79
2023/10/29 12:23:16;;;;;;;9.73;2.37;;;;;;;;;;5009136;28;20198;-80
2023/10/29 12:25:43;;;;;;;9.07;2.40;;;;;;;;;;5013809;28;20184;-81
2023/10/29 12:28:09;;;;;;;6.90;2.10;;;;;;;;;;5001512;28;20252;-80
2023/10/29 12:30:40;;;;;;;12.57;2.40;;;;;;;;;;5019610;28;20216;-80
2023/10/29 12:33:29;;;;;;;8.57;2.40;;;;;;;;;;5032791;28;20188;-78
2023/10/29 12:35:56;;;;;;;11.30;2.17;;;;;;;;;;5026306;28;20221;-80
2023/10/29 12:38:23;;;;;;;7.43;2.20;;;;;;;;;;5016642;28;20205;-80
2023/10/29 12:41:08;;;;;;;10.43;2.30;;;;;;;;;;5015553;28;20194;-80
2023/10/29 12:43:38;;;;;;;7.13;2.00;;;;;;;;;;5033587;28;20177;-81
2023/10/29 12:46:05;;;;;;;10.30;2.47;;;;;;;;;;5029152;28;20235;-80
2023/10/29 12:48:32;;;;;;;9.70;2.50;;;;;;;;;;5022916;28;20470;-78
2023/10/29 12:50:58;;;;;;;8.90;2.20;;;;;;;;;;5017771;28;20215;-79
2023/10/29 12:53:28;;;;;;;9.47;2.53;;;;;;;;;;5017851;28;20211;-79
2023/10/29 12:55:55;;;;;;;7.87;2.10;;;;;;;;;;5018696;28;20258;-78
2023/10/29 12:58:21;;;;;;;11.23;2.20;;;;;;;;;;5017546;28;20183;-78
2023/10/29 13:00:47;;;;;;;6.60;1.97;;;;;;;;;;5017291;28;20181;-77
2023/10/29 13:03:13;;;;;;;9.23;2.30;;;;;;;;;;5014782;28;20267;-78
2023/10/29 13:05:39;;;;;;;8.63;2.30;;;;;;;;;;5024364;28;20181;-78
2023/10/29 13:08:05;;;;;;;6.50;2.40;;;;;;;;;;5026774;28;20181;-77
2023/10/29 13:10:38;;;;;;;8.33;2.20;;;;;;;;;;5017847;28;20238;-78
2023/10/29 13:13:04;;;;;;;7.90;2.07;;;;;;;;;;5017610;28;20192;-78
2023/10/29 13:15:30;;;;;;;8.47;2.43;;;;;;;;;;5000390;28;20223;-78
2023/10/29 13:17:56;;;;;;;7.43;2.13;;;;;;;;;;5023027;28;20177;-78
2023/10/29 13:20:25;;;;;;;9.30;2.10;;;;;;;;;;5027339;28;20184;-78
2023/10/29 13:22:51;;;;;;;9.27;2.27;;;;;;;;;;5014996;28;20191;-78
2023/10/29 13:25:18;;;;;;;8.70;2.27;;;;;;;;;;5009913;28;20298;-78
2023/10/29 13:27:44;;;;;;;6.77;2.03;;;;;;;;;;5021298;28;20184;-79
2023/10/29 13:30:11;;;;;;;9.48;2.80;;;;;;;;;;5016070;28;20450;-79
2023/10/29 13:32:37;;;;;;;12.23;2.50;;;;;;;;;;5029770;28;20193;-76
2023/10/29 13:35:03;;;;;;;8.30;2.00;;;;;;;;;;5008586;28;20197;-77
2023/10/29 13:37:30;;;;;;;10.27;2.40;;;;;;;;;;5023989;28;20283;-76
2023/10/29 13:39:56;;;;;;;9.00;2.50;;;;;;;;;;4999319;28;20415;-76
2023/10/29 13:42:23;;;;;;;8.85;2.53;;;;;;;;;;5016495;28;20417;-75
2023/10/29 13:44:51;;;;;;;9.68;2.42;;;;;;;;;;5014019;28;20407;-76
2023/10/29 13:47:18;;;;;;;9.50;2.45;;;;;;;;;;5016784;28;20417;-76
2023/10/29 13:49:45;;;;;;;8.05;2.40;;;;;;;;;;4999938;28;20419;-75
2023/10/29 13:52:11;;;;;;;10.27;2.50;;;;;;;;;;5005129;28;20453;-76
2023/10/29 13:54:39;;;;;;;8.83;2.20;;;;;;;;;;5025529;28;20185;-78
2023/10/29 13:57:05;;;;;;;6.80;2.13;;;;;;;;;;5009189;28;20442;-80
2023/10/29 13:59:31;;;;;;;6.95;2.40;;;;;;;;;;5024816;28;20497;-80
2023/10/29 14:01:57;;;;;;;7.23;2.40;;;;;;;;;;5013529;28;20268;-80
2023/10/29 14:04:23;;;;;;;8.23;2.30;;;;;;;;;;4997577;28;20189;-80
2023/10/29 14:06:49;;;;;;;8.25;2.30;;;;;;;;;;5015493;28;20483;-80
2023/10/29 14:09:15;;;;;;;8.65;2.33;;;;;;;;;;5015320;28;20406;-80
2023/10/29 14:11:41;;;;;;;9.83;2.20;;;;;;;;;;5024838;28;20189;-78
2023/10/29 14:14:07;;;;;;;7.53;2.17;;;;;;;;;;5013020;28;20223;-78
2023/10/29 14:16:37;;;;;;;7.40;2.13;;;;;;;;;;5017386;28;20433;-78
2023/10/29 14:19:03;;;;;;;6.43;2.30;;;;;;;;;;5017564;28;20219;-77
2023/10/29 14:21:29;;;;;;;11.17;2.20;;;;;;;;;;5016391;28;20279;-78
2023/10/29 14:23:56;;;;;;;8.43;2.20;;;;;;;;;;5016029;28;20465;-75
2023/10/29 14:26:22;;;;;;;6.25;1.90;;;;;;;;;;5015776;28;20430;-78
2023/10/29 14:28:48;;;;;;;9.73;2.23;;;;;;;;;;5018346;28;20193;-78
2023/10/29 14:31:14;;;;;;;7.67;2.10;;;;;;;;;;5017107;28;20406;-78
2023/10/29 14:33:40;;;;;;;6.20;2.00;;;;;;;;;;5008411;28;20408;-78
2023/10/29 14:36:07;;;;;;;6.63;1.92;;;;;;;;;;5014049;28;20438;-78
2023/10/29 14:38:33;;;;;;;3.67;1.40;;;;;;;;;;4997542;28;20197;-78
2023/10/29 14:41:00;;;;;;;5.80;2.28;;;;;;;;;;4998806;28;20426;-78
2023/10/29 14:43:26;;;;;;;7.27;1.50;;;;;;;;;;5016913;28;20181;-78
2023/10/29 14:45:53;;;;;;;6.60;2.20;;;;;;;;;;5033477;28;20402;-78
2023/10/29 14:48:19;;;;;;;6.93;1.90;;;;;;;;;;5017627;28;20475;-79
2023/10/29 14:50:45;;;;;;;6.47;1.90;;;;;;;;;;5018088;28;20177;-80
2023/10/29 14:53:12;;;;;;;6.20;1.53;;;;;;;;;;5012190;28;20180;-79
2023/10/29 14:55:43;;;;;;;6.33;2.00;;;;;;;;;;4999954;28;20464;-79
2023/10/29 14:58:09;;;;;;;8.68;2.25;;;;;;;;;;5016339;28;20436;-79
2023/10/29 15:00:35;;;;;;;7.43;1.93;;;;;;;;;;5000654;28;20177;-79
2023/10/29 15:03:01;;;;;;;10.03;2.40;;;;;;;;;;5000549;28;20184;-79
2023/10/29 15:05:31;;;;;;;8.07;2.23;;;;;;;;;;5018085;28;20192;-80
2023/10/29 15:07:57;;;;;;;7.30;2.20;;;;;;;;;;5017365;28;20283;-79
2023/10/29 15:10:23;;;;;;;7.77;2.27;;;;;;;;;;5017142;28;20219;-79
2023/10/29 15:12:49;;;;;;;7.60;2.67;;;;;;;;;;5035413;28;20183;-80
2023/10/29 15:15:15;;;;;;;9.70;2.80;;;;;;;;;;5000842;28;20184;-79
2023/10/29 15:17:42;;;;;;;10.07;2.63;;;;;;;;;;5018852;28;20279;-77
2023/10/29 15:20:09;;;;;;;8.10;2.67;;;;;;;;;;5015897;28;20188;-77
2023/10/29 15:22:35;;;;;;;6.23;2.37;;;;;;;;;;5012591;28;20194;-77
2023/10/29 15:25:04;;;;;;;7.65;2.50;;;;;;;;;;5007180;28;20490;-77
2023/10/29 15:27:30;;;;;;;11.80;2.90;;;;;;;;;;5015367;28;20188;-77
2023/10/29 15:29:56;;;;;;;9.70;2.90;;;;;;;;;;5015395;28;20420;-77
2023/10/29 15:32:22;;;;;;;7.63;2.60;;;;;;;;;;5016136;28;20187;-77
2023/10/29 15:34:48;;;;;;;9.57;2.63;;;;;;;;;;5027742;28;20181;-80
2023/10/29 15:37:14;;;;;;;6.07;2.00;;;;;;;;;;5028750;28;20224;-79
2023/10/29 15:39:43;;;;;;;8.53;3.10;;;;;;;;;;5012227;28;20235;-79
2023/10/29 15:42:09;;;;;;;7.97;2.63;;;;;;;;;;5022488;28;20436;-78
2023/10/29 15:44:35;;;;;;;7.90;2.40;;;;;;;;;;5024267;28;20184;-78
2023/10/29 15:47:01;;;;;;;8.00;1.80;;;;;;;;;;5015803;28;20192;-79
2023/10/29 15:49:27;;;;;;;4.13;1.80;;;;;;;;;;5016800;28;20194;-79
2023/10/29 15:51:54;;;;;;;2.40;1.57;;;;;;;;;;5003961;28;20188;-77
2023/10/29 15:54:20;;;;;;;3.60;1.80;;;;;;;;;;5016883;28;20192;-77
2023/10/29 15:56:46;;;;;;;4.60;1.90;;;;;;;;;;5016467;28;20319;-77
2023/10/29 15:59:12;;;;;;;2.97;1.50;;;;;;;;;;5013489;28;20189;-77
2023/10/29 16:01:39;;;;;;;3.53;1.40;;;;;;;;;;5017619;28;20253;-77
2023/10/29 16:04:05;;;;;;;4.07;1.80;;;;;;;;;;5019230;28;20188;-77
2023/10/29 16:06:31;;;;;;;4.23;1.50;;;;;;;;;;5010100;28;20209;-80
2023/10/29 16:08:57;;;;;;;3.57;1.50;;;;;;;;;;5012530;28;20231;-80
2023/10/29 16:11:26;;;;;;;3.10;1.33;;;;;;;;;;5030814;28;20188;-80
2023/10/29 16:13:52;;;;;;;3.40;1.50;;;;;;;;;;5000032;28;20280;-79
2023/10/29 16:16:19;;;;;;;1.83;1.17;;;;;;;;;;5036613;28;20212;-80
2023/10/29 16:18:45;;;;;;;4.63;1.70;;;;;;;;;;5019153;28;20417;-80
2023/10/29 16:21:11;;;;;;;4.90;1.77;;;;;;;;;;5031748;28;20210;-79
2023/10/29 16:23:37;;;;;;;4.95;1.80;;;;;;;;;;5018182;28;20432;-77
2023/10/29 16:26:03;;;;;;;4.65;1.75;;;;;;;;;;5017071;28;20431;-77
2023/10/29 16:28:29;;;;;;;3.22;1.60;;;;;;;;;;5019178;28;20486;-77
2023/10/29 16:30:55;;;;;;;5.67;1.53;;;;;;;;;;5022214;28;20189;-77
2023/10/29 16:33:21;;;;;;;3.27;1.53;;;;;;;;;;5021165;28;20222;-77
2023/10/29 16:35:47;;;;;;;3.10;1.60;;;;;;;;;;5018424;28;20675;-77
2023/10/29 16:38:13;;;;;;;3.73;2.00;;;;;;;;;;5018996;28;20227;-77
2023/10/29 16:40:42;;;;;;;3.75;1.70;;;;;;;;;;5032085;28;20532;-76
2023/10/29 16:43:09;;;;;;;4.82;2.03;;;;;;;;;;5039341;28;20445;-77
2023/10/29 16:45:38;;;;;;;3.25;1.70;;;;;;;;;;5039106;28;20431;-77
2023/10/29 16:48:04;;;;;;;4.22;1.92;;;;;;;;;;5023900;28;20433;-77
2023/10/29 16:50:30;;;;;;;3.08;1.60;;;;;;;;;;4998639;28;20493;-77
2023/10/29 16:52:56;;;;;;;3.17;1.67;;;;;;;;;;5026894;23;20471;-81
2023/10/29 16:55:23;;;;;;;3.00;1.67;;;;;;;;;;5013497;28;20459;-82
2023/10/29 16:57:49;;;;;;;3.15;1.70;;;;;;;;;;5009701;28;20477;-83
2023/10/29 17:00:15;;;;;;;3.05;1.67;;;;;;;;;;5010327;28;20428;-84
2023/10/29 17:02:41;;;;;;;4.57;1.85;;;;;;;;;;4992498;28;20454;-84
2023/10/29 17:05:08;;;;;;;2.28;1.55;;;;;;;;;;5011598;28;20426;-84
2023/10/29 17:07:35;;;;;;;3.40;1.80;;;;;;;;;;5014439;28;20425;-85